createdAt,value
2018-10-03T00:00:54.470Z,99.99
2018-10-03T00:01:54.530Z,99.99
2018-10-03T00:02:54.589Z,99.99
2018-10-03T00:03:54.648Z,99.99
2018-10-03T00:04:54.708Z,99.99
2018-10-03T00:05:54.766Z,99.99
2018-10-03T00:06:54.825Z,99.99
2018-10-03T00:07:54.885Z,99.99
2018-10-03T00:08:54.949Z,99.99
2018-10-03T00:09:55.003Z,99.99
2018-10-03T00:10:55.063Z,99.99
2018-10-03T00:11:55.122Z,99.99
2018-10-03T00:12:55.182Z,99.99
2018-10-03T00:13:55.240Z,99.99
2018-10-03T00:14:55.300Z,99.99
2018-10-03T00:15:55.360Z,99.99
2018-10-03T00:16:55.420Z,99.99
2018-10-03T00:17:55.477Z,99.99
2018-10-03T00:18:55.539Z,99.99
2018-10-03T00:19:55.597Z,99.99
2018-10-03T00:20:55.657Z,99.99
2018-10-03T00:21:55.715Z,99.99
2018-10-03T00:22:55.778Z,99.99
2018-10-03T00:23:55.834Z,99.99
2018-10-03T00:24:55.894Z,99.99
2018-10-03T00:25:55.953Z,99.99
2018-10-03T00:26:56.011Z,99.99
2018-10-03T00:27:56.071Z,99.99
2018-10-03T00:28:56.132Z,99.99
2018-10-03T00:29:56.190Z,99.99
2018-10-03T00:30:56.251Z,99.99
2018-10-03T00:31:56.309Z,99.99
2018-10-03T00:32:56.368Z,99.99
2018-10-03T00:33:56.425Z,99.99
2018-10-03T00:34:56.487Z,99.99
2018-10-03T00:35:56.548Z,99.99
2018-10-03T00:36:56.606Z,99.99
2018-10-03T00:37:56.664Z,99.99
2018-10-03T00:38:56.724Z,99.99
2018-10-03T00:39:56.785Z,99.99
2018-10-03T00:40:56.843Z,99.99
2018-10-03T00:41:56.901Z,99.99
2018-10-03T00:42:56.961Z,99.99
2018-10-03T00:43:57.022Z,99.99
2018-10-03T00:44:57.079Z,99.99
2018-10-03T00:45:57.138Z,99.99
2018-10-03T00:46:57.198Z,99.99
2018-10-03T00:47:57.258Z,99.99
2018-10-03T00:48:57.318Z,99.99
2018-10-03T00:49:57.376Z,99.99
2018-10-03T00:50:57.435Z,99.99
2018-10-03T00:51:57.496Z,99.99
2018-10-03T00:52:57.555Z,99.99
2018-10-03T00:53:57.613Z,99.99
2018-10-03T00:54:57.673Z,99.99
2018-10-03T00:55:57.734Z,99.99
2018-10-03T00:56:57.792Z,99.99
2018-10-03T00:57:57.851Z,99.99
2018-10-03T00:58:57.913Z,99.99
2018-10-03T00:59:57.970Z,99.99
2018-10-03T01:00:58.035Z,99.99
2018-10-03T01:01:58.089Z,99.99
2018-10-03T01:02:58.149Z,99.99
2018-10-03T01:03:58.208Z,99.99
2018-10-03T01:04:58.268Z,99.99
2018-10-03T01:05:58.331Z,99.99
2018-10-03T01:06:58.387Z,99.99
2018-10-03T01:07:58.448Z,99.99
2018-10-03T01:08:58.506Z,99.99
2018-10-03T01:09:58.566Z,99.99
2018-10-03T01:10:58.624Z,99.99
2018-10-03T01:11:58.686Z,99.99
2018-10-03T01:12:58.744Z,99.99
2018-10-03T01:13:58.802Z,99.99
2018-10-03T01:14:58.862Z,99.99
2018-10-03T01:15:58.921Z,99.99
2018-10-03T01:16:58.981Z,99.99
2018-10-03T01:17:59.040Z,99.99
2018-10-03T01:18:59.100Z,99.99
2018-10-03T01:19:59.159Z,99.99
2018-10-03T01:20:59.223Z,99.99
2018-10-03T01:21:59.278Z,99.99
2018-10-03T01:22:59.337Z,99.99
2018-10-03T01:23:59.398Z,99.99
2018-10-03T01:24:59.458Z,99.99
2018-10-03T01:25:59.515Z,99.99
2018-10-03T01:26:59.576Z,99.99
2018-10-03T01:27:59.635Z,99.99
2018-10-03T01:28:59.695Z,99.99
2018-10-03T01:29:59.753Z,99.99
2018-10-03T01:30:59.813Z,99.99
2018-10-03T01:31:59.874Z,99.99
2018-10-03T01:32:59.933Z,99.99
2018-10-03T01:33:59.992Z,99.99
2018-10-03T01:35:00.051Z,99.99
2018-10-03T01:36:00.111Z,99.99
2018-10-03T01:37:00.170Z,99.99
2018-10-03T01:38:00.229Z,99.99
2018-10-03T01:39:00.289Z,99.99
2018-10-03T01:40:00.348Z,99.99
2018-10-03T01:41:00.411Z,99.99
2018-10-03T01:42:00.469Z,99.99
2018-10-03T01:43:00.526Z,99.99
2018-10-03T01:44:00.586Z,99.99
2018-10-03T01:45:00.645Z,99.99
2018-10-03T01:46:00.706Z,99.99
2018-10-03T01:47:00.764Z,99.99
2018-10-03T01:48:00.824Z,99.99
2018-10-03T01:49:00.884Z,99.99
2018-10-03T01:50:00.942Z,99.99
2018-10-03T01:51:01.003Z,99.99
2018-10-03T01:52:01.061Z,99.99
2018-10-03T01:53:01.122Z,99.99
2018-10-03T01:54:01.180Z,99.99
2018-10-03T01:55:01.240Z,99.99
2018-10-03T01:56:01.301Z,99.99
2018-10-03T01:57:01.360Z,99.99
2018-10-03T01:58:01.419Z,99.99
2018-10-03T01:59:01.479Z,99.99
2018-10-03T02:00:01.538Z,99.99
2018-10-03T02:01:01.598Z,99.99
2018-10-03T02:02:01.656Z,99.99
2018-10-03T02:03:01.715Z,99.99
2018-10-03T02:04:01.776Z,99.99
2018-10-03T02:05:01.835Z,99.99
2018-10-03T02:06:01.894Z,99.99
2018-10-03T02:07:01.955Z,99.99
2018-10-03T02:08:02.013Z,99.99
2018-10-03T02:09:02.073Z,99.99
2018-10-03T02:10:02.133Z,99.99
2018-10-03T02:11:02.191Z,99.99
2018-10-03T02:12:02.250Z,99.99
2018-10-03T02:13:02.310Z,99.99
2018-10-03T02:14:02.368Z,99.99
2018-10-03T02:15:02.429Z,99.99
2018-10-03T02:16:02.488Z,99.99
2018-10-03T02:17:02.572Z,99.99
2018-10-03T02:18:02.605Z,99.99
2018-10-03T02:19:02.666Z,99.99
2018-10-03T02:20:02.726Z,99.99
2018-10-03T02:21:02.797Z,99.99
2018-10-03T02:22:02.844Z,99.99
2018-10-03T02:23:02.905Z,99.99
2018-10-03T02:24:02.963Z,99.99
2018-10-03T02:25:03.023Z,99.99
2018-10-03T02:26:03.082Z,99.99
2018-10-03T02:27:03.141Z,99.99
2018-10-03T02:28:03.200Z,99.99
2018-10-03T02:29:03.265Z,99.99
2018-10-03T02:30:03.319Z,99.99
2018-10-03T02:31:03.379Z,99.99
2018-10-03T02:32:03.444Z,99.99
2018-10-03T02:33:03.498Z,99.99
2018-10-03T02:34:03.558Z,99.99
2018-10-03T02:35:03.616Z,99.99
2018-10-03T02:36:03.676Z,99.99
2018-10-03T02:37:03.735Z,99.99
2018-10-03T02:38:03.794Z,99.99
2018-10-03T02:39:03.855Z,99.99
2018-10-03T02:40:03.913Z,99.99
2018-10-03T02:41:03.972Z,99.99
2018-10-03T02:42:04.031Z,99.99
2018-10-03T02:43:04.093Z,99.99
2018-10-03T02:44:04.151Z,99.99
2018-10-03T02:45:04.210Z,99.99
2018-10-03T02:46:04.275Z,99.99
2018-10-03T02:47:04.328Z,99.99
2018-10-03T02:48:04.388Z,99.99
2018-10-03T02:49:04.447Z,99.99
2018-10-03T02:50:04.506Z,99.99
2018-10-03T02:51:04.566Z,99.99
2018-10-03T02:52:04.625Z,99.99
2018-10-03T02:53:04.686Z,99.99
2018-10-03T02:54:04.745Z,99.99
2018-10-03T02:55:04.801Z,99.99
2018-10-03T02:56:04.862Z,99.99
2018-10-03T02:57:04.921Z,99.99
2018-10-03T02:58:04.985Z,99.99
2018-10-03T02:59:05.040Z,99.99
2018-10-03T03:00:05.103Z,99.99
2018-10-03T03:01:05.159Z,99.99
2018-10-03T03:02:05.217Z,99.99
2018-10-03T03:03:05.277Z,99.99
2018-10-03T03:04:05.336Z,99.99
2018-10-03T03:05:05.396Z,99.99
2018-10-03T03:06:05.454Z,99.99
2018-10-03T03:07:05.515Z,99.99
2018-10-03T03:08:05.571Z,99.99
2018-10-03T03:09:05.660Z,99.99
2018-10-03T03:10:05.690Z,99.99
2018-10-03T03:11:05.751Z,99.99
2018-10-03T03:12:05.808Z,99.99
2018-10-03T03:13:05.869Z,99.99
2018-10-03T03:14:05.927Z,99.99
2018-10-03T03:15:05.986Z,99.99
2018-10-03T03:16:06.045Z,99.99
2018-10-03T03:17:06.128Z,99.99
2018-10-03T03:18:06.163Z,99.99
2018-10-03T03:19:06.224Z,99.99
2018-10-03T03:20:06.281Z,99.99
2018-10-03T03:21:06.352Z,99.99
2018-10-03T03:22:06.656Z,99.99
2018-10-03T03:23:06.475Z,99.99
2018-10-03T03:24:06.519Z,99.99
2018-10-03T03:25:06.577Z,99.99
2018-10-03T03:26:06.636Z,99.99
2018-10-03T03:27:06.845Z,99.99
2018-10-03T03:28:06.755Z,99.99
2018-10-03T03:29:06.814Z,99.99
2018-10-03T03:30:06.873Z,99.99
2018-10-03T03:31:06.937Z,99.99
2018-10-03T03:32:07.000Z,99.99
2018-10-03T03:33:07.049Z,99.99
2018-10-03T03:34:07.106Z,99.99
2018-10-03T03:35:07.168Z,99.99
2018-10-03T03:36:07.225Z,99.99
2018-10-03T03:37:07.379Z,99.99
2018-10-03T03:38:07.382Z,99.99
2018-10-03T03:39:07.435Z,99.99
2018-10-03T03:40:07.492Z,99.99
2018-10-03T03:41:07.564Z,99.99
2018-10-03T03:42:07.669Z,99.99
2018-10-03T03:43:07.674Z,99.99
2018-10-03T03:44:07.730Z,99.99
2018-10-03T03:45:07.757Z,99.99
2018-10-03T03:46:07.849Z,99.99
2018-10-03T03:47:07.983Z,99.99
2018-10-03T03:48:07.976Z,99.99
2018-10-03T03:49:08.032Z,99.99
2018-10-03T03:50:08.049Z,99.99
2018-10-03T03:51:08.154Z,99.99
2018-10-03T03:52:08.261Z,99.99
2018-10-03T03:53:08.262Z,99.99
2018-10-03T03:54:08.319Z,99.99
2018-10-03T03:55:08.344Z,99.99
2018-10-03T03:56:08.460Z,99.99
2018-10-03T03:57:08.463Z,99.99
2018-10-03T03:58:08.520Z,99.99
2018-10-03T03:59:08.580Z,99.99
2018-10-03T04:00:08.639Z,99.99
2018-10-03T04:01:08.705Z,99.99
2018-10-03T04:02:08.756Z,99.99
2018-10-03T04:03:08.816Z,99.99
2018-10-03T04:04:08.875Z,99.99
2018-10-03T04:05:08.932Z,99.99
2018-10-03T04:06:08.992Z,99.99
2018-10-03T04:07:09.051Z,99.99
2018-10-03T04:08:09.109Z,99.99
2018-10-03T04:09:09.171Z,99.99
2018-10-03T04:10:09.227Z,99.99
2018-10-03T04:11:09.286Z,99.99
2018-10-03T04:12:09.348Z,99.99
2018-10-03T04:13:09.404Z,99.99
2018-10-03T04:14:09.462Z,99.99
2018-10-03T04:15:09.520Z,99.99
2018-10-03T04:16:09.583Z,99.99
2018-10-03T04:17:09.639Z,99.99
2018-10-03T04:18:09.698Z,99.99
2018-10-03T04:19:09.756Z,99.99
2018-10-03T04:20:09.818Z,99.99
2018-10-03T04:21:09.874Z,99.99
2018-10-03T04:22:09.934Z,99.99
2018-10-03T04:23:09.993Z,99.99
2018-10-03T04:24:10.051Z,99.99
2018-10-03T04:25:10.110Z,99.99
2018-10-03T04:26:10.168Z,99.99
2018-10-03T04:27:10.228Z,99.99
2018-10-03T04:28:10.285Z,99.99
2018-10-03T04:29:10.344Z,99.99
2018-10-03T04:30:10.402Z,99.99
2018-10-03T04:31:10.461Z,99.99
2018-10-03T04:32:10.521Z,99.99
2018-10-03T04:33:10.579Z,99.99
2018-10-03T04:34:10.638Z,99.99
2018-10-03T04:35:10.704Z,99.99
2018-10-03T04:36:10.756Z,99.99
2018-10-03T04:37:10.815Z,99.99
2018-10-03T04:38:10.872Z,99.99
2018-10-03T04:39:10.934Z,99.99
2018-10-03T04:40:10.991Z,99.99
2018-10-03T04:41:11.051Z,99.99
2018-10-03T04:42:11.127Z,99.99
2018-10-03T04:43:11.202Z,99.99
2018-10-03T04:44:11.226Z,99.99
2018-10-03T04:45:11.284Z,99.99
2018-10-03T04:46:11.368Z,99.99
2018-10-03T04:47:11.709Z,99.99
2018-10-03T04:48:11.732Z,99.99
2018-10-03T04:49:11.936Z,99.99
2018-10-03T04:50:11.588Z,99.99
2018-10-03T04:51:11.644Z,99.99
2018-10-03T04:52:12.064Z,99.99
2018-10-03T04:53:11.753Z,99.99
2018-10-03T04:54:11.811Z,99.99
2018-10-03T04:55:11.870Z,99.99
2018-10-03T04:56:11.928Z,99.99
2018-10-03T04:57:11.989Z,99.99
2018-10-03T04:58:12.046Z,99.99
2018-10-03T04:59:12.103Z,99.99
2018-10-03T05:00:12.164Z,99.99
2018-10-03T05:01:12.222Z,99.99
2018-10-03T05:02:12.281Z,99.99
2018-10-03T05:03:12.338Z,99.99
2018-10-03T05:04:12.397Z,99.99
2018-10-03T05:05:12.456Z,99.99
2018-10-03T05:06:12.515Z,99.99
2018-10-03T05:07:12.574Z,99.99
2018-10-03T05:08:12.631Z,99.99
2018-10-03T05:09:12.694Z,99.99
2018-10-03T05:10:12.748Z,99.99
2018-10-03T05:11:12.876Z,99.99
2018-10-03T05:12:12.867Z,99.99
2018-10-03T05:13:12.924Z,99.99
2018-10-03T05:14:12.981Z,99.99
2018-10-03T05:15:13.040Z,99.99
2018-10-03T05:16:13.098Z,99.99
2018-10-03T05:17:13.157Z,99.99
2018-10-03T05:18:13.218Z,99.99
2018-10-03T05:19:13.273Z,99.99
2018-10-03T05:20:13.334Z,99.99
2018-10-03T05:21:13.390Z,99.99
2018-10-03T05:22:13.448Z,99.99
2018-10-03T05:23:13.506Z,99.99
2018-10-03T05:24:13.566Z,99.99
2018-10-03T05:25:13.624Z,99.99
2018-10-03T05:26:13.681Z,99.99
2018-10-03T05:27:13.741Z,99.99
2018-10-03T05:28:13.799Z,99.99
2018-10-03T05:29:13.857Z,99.99
2018-10-03T05:30:13.915Z,99.99
2018-10-03T05:31:13.974Z,99.99
2018-10-03T05:32:14.032Z,99.99
2018-10-03T05:33:14.143Z,99.99
2018-10-03T05:34:14.147Z,99.99
2018-10-03T05:35:14.207Z,99.99
2018-10-03T05:36:14.265Z,99.99
2018-10-03T05:37:14.325Z,99.99
2018-10-03T05:38:14.384Z,99.99
2018-10-03T05:39:14.440Z,99.99
2018-10-03T05:40:14.498Z,99.99
2018-10-03T05:41:14.557Z,99.99
2018-10-03T05:42:14.613Z,99.99
2018-10-03T05:43:14.671Z,99.99
2018-10-03T05:44:14.779Z,99.99
2018-10-03T05:45:14.789Z,99.99
2018-10-03T05:46:14.847Z,99.99
2018-10-03T05:47:14.906Z,99.99
2018-10-03T05:48:15.023Z,99.99
2018-10-03T05:49:15.024Z,99.99
2018-10-03T05:50:15.079Z,99.99
2018-10-03T05:51:15.140Z,99.99
2018-10-03T05:52:15.195Z,99.99
2018-10-03T05:53:15.257Z,99.99
2018-10-03T05:54:15.321Z,99.99
2018-10-03T05:55:15.371Z,99.99
2018-10-03T05:56:15.430Z,99.99
2018-10-03T05:57:15.487Z,99.99
2018-10-03T05:58:15.545Z,99.99
2018-10-03T05:59:15.603Z,99.99
2018-10-03T06:00:15.662Z,99.99
2018-10-03T06:01:15.719Z,99.99
2018-10-03T06:02:15.778Z,99.99
2018-10-03T06:03:15.835Z,99.99
2018-10-03T06:04:15.895Z,99.99
2018-10-03T06:05:15.953Z,99.99
2018-10-03T06:06:16.010Z,99.99
2018-10-03T06:07:16.075Z,99.99
2018-10-03T06:08:16.128Z,99.99
2018-10-03T06:09:16.186Z,99.99
2018-10-03T06:10:16.244Z,99.99
2018-10-03T06:11:58.748Z,99.99
2018-10-03T06:12:58.798Z,99.99
2018-10-03T06:13:58.857Z,99.99
2018-10-03T06:14:58.916Z,99.99
2018-10-03T06:15:58.973Z,99.99
2018-10-03T06:16:59.033Z,99.99
2018-10-03T06:17:59.090Z,99.99
2018-10-03T06:18:59.148Z,99.99
2018-10-03T06:19:59.205Z,99.99
2018-10-03T06:20:59.264Z,99.99
2018-10-03T06:21:59.323Z,99.99
2018-10-03T06:22:59.381Z,99.99
2018-10-03T06:23:59.440Z,99.99
2018-10-03T06:24:59.498Z,99.99
2018-10-03T06:25:59.555Z,99.99
2018-10-03T06:26:59.616Z,99.99
2018-10-03T06:27:59.805Z,99.99
2018-10-03T06:28:59.732Z,99.99
2018-10-03T06:29:59.790Z,99.99
2018-10-03T06:30:59.853Z,99.99
2018-10-03T06:31:59.908Z,99.99
2018-10-03T06:32:59.965Z,99.99
2018-10-03T06:34:00.029Z,99.99
2018-10-03T06:35:00.088Z,99.99
2018-10-03T06:36:00.143Z,99.99
2018-10-03T06:37:00.199Z,99.99
2018-10-03T06:38:00.260Z,99.99
2018-10-03T06:39:00.317Z,99.99
2018-10-03T06:40:00.376Z,99.99
2018-10-03T06:41:00.434Z,99.99
2018-10-03T06:42:00.492Z,99.99
2018-10-03T06:43:00.552Z,99.99
2018-10-03T06:44:00.610Z,99.99
2018-10-03T06:45:00.676Z,99.99
2018-10-03T06:46:00.727Z,99.99
2018-10-03T06:47:00.786Z,99.99
2018-10-03T06:48:00.844Z,99.99
2018-10-03T06:49:00.904Z,99.99
2018-10-03T06:50:00.962Z,99.99
2018-10-03T06:51:01.022Z,99.99
2018-10-03T06:52:01.079Z,99.99
2018-10-03T06:53:01.139Z,99.99
2018-10-03T06:54:01.198Z,99.99
2018-10-03T06:55:01.258Z,99.99
2018-10-03T06:56:01.316Z,99.99
2018-10-03T06:57:01.420Z,99.99
2018-10-03T06:58:01.435Z,99.99
2018-10-03T06:59:01.496Z,99.99
2018-10-03T07:00:01.587Z,99.99
2018-10-03T07:01:01.612Z,99.99
2018-10-03T07:02:01.677Z,99.99
2018-10-03T07:03:01.731Z,99.99
2018-10-03T07:04:01.788Z,99.99
2018-10-03T07:05:01.847Z,99.99
2018-10-03T07:06:01.905Z,99.99
2018-10-03T07:07:01.965Z,99.99
2018-10-03T07:08:02.024Z,99.99
2018-10-03T07:09:02.082Z,99.99
2018-10-03T07:10:02.141Z,99.99
2018-10-03T07:11:02.200Z,99.99
2018-10-03T07:12:02.258Z,99.99
2018-10-03T07:13:02.331Z,99.99
2018-10-03T07:14:02.377Z,99.99
2018-10-03T07:15:02.439Z,99.99
2018-10-03T07:16:02.494Z,99.99
2018-10-03T07:17:02.571Z,99.99
2018-10-03T07:18:02.613Z,99.99
2018-10-03T07:19:02.672Z,99.99
2018-10-03T07:20:02.795Z,99.99
2018-10-03T07:21:02.798Z,99.99
2018-10-03T07:22:02.849Z,99.99
2018-10-03T07:23:02.908Z,99.99
2018-10-03T07:24:02.983Z,99.99
2018-10-03T07:25:03.025Z,99.99
2018-10-03T07:26:03.109Z,99.99
2018-10-03T07:27:03.145Z,99.99
2018-10-03T07:28:03.204Z,99.99
2018-10-03T07:29:03.263Z,99.99
2018-10-03T07:30:03.338Z,99.99
2018-10-03T07:31:03.383Z,99.99
2018-10-03T07:32:03.440Z,99.99
2018-10-03T07:33:03.499Z,99.99
2018-10-03T07:34:03.559Z,99.99
2018-10-03T07:35:03.618Z,99.99
2018-10-03T07:36:03.678Z,99.99
2018-10-03T07:37:03.737Z,99.99
2018-10-03T07:38:03.795Z,99.99
2018-10-03T07:39:03.855Z,99.99
2018-10-03T07:40:03.913Z,99.99
2018-10-03T07:41:03.974Z,99.99
2018-10-03T07:42:04.034Z,99.99
2018-10-03T07:43:04.093Z,99.99
2018-10-03T07:44:04.186Z,99.99
2018-10-03T07:45:04.213Z,99.99
2018-10-03T07:46:04.271Z,99.99
2018-10-03T07:47:04.333Z,99.99
2018-10-03T07:48:04.396Z,99.99
2018-10-03T07:49:04.449Z,99.99
2018-10-03T07:50:04.509Z,99.99
2018-10-03T07:51:04.568Z,99.99
2018-10-03T07:52:04.631Z,99.99
2018-10-03T07:53:04.687Z,99.99
2018-10-03T07:54:04.748Z,99.99
2018-10-03T07:55:04.808Z,99.99
2018-10-03T07:56:04.871Z,99.99
2018-10-03T07:57:04.929Z,99.99
2018-10-03T07:58:04.987Z,99.99
2018-10-03T07:59:05.066Z,99.99
2018-10-03T08:00:05.105Z,99.99
2018-10-03T08:01:05.165Z,99.99
2018-10-03T08:02:05.244Z,99.99
2018-10-03T08:03:05.303Z,99.99
2018-10-03T08:04:05.344Z,99.99
2018-10-03T08:05:05.403Z,99.99
2018-10-03T08:06:05.463Z,99.99
2018-10-03T08:07:05.525Z,99.99
2018-10-03T08:08:05.583Z,99.99
2018-10-03T08:09:05.645Z,99.99
2018-10-03T08:10:05.797Z,99.99
2018-10-03T08:11:05.763Z,99.99
2018-10-03T08:12:05.822Z,99.99
2018-10-03T08:13:05.883Z,99.99
2018-10-03T08:14:05.943Z,99.99
2018-10-03T08:15:06.003Z,99.99
2018-10-03T08:16:06.061Z,99.99
2018-10-03T08:17:06.124Z,99.99
2018-10-03T08:18:06.182Z,99.99
2018-10-03T08:19:06.245Z,99.99
2018-10-03T08:20:06.301Z,99.99
2018-10-03T08:21:06.362Z,99.99
2018-10-03T08:22:06.423Z,99.99
2018-10-03T08:23:06.483Z,99.99
2018-10-03T08:24:06.542Z,99.99
2018-10-03T08:25:06.603Z,99.99
2018-10-03T08:26:06.663Z,99.99
2018-10-03T08:27:06.724Z,99.99
2018-10-03T08:28:06.784Z,99.99
2018-10-03T08:29:06.844Z,99.99
2018-10-03T08:30:06.938Z,99.99
2018-10-03T08:31:06.965Z,99.99
2018-10-03T08:32:07.024Z,99.99
2018-10-03T08:33:07.092Z,99.99
2018-10-03T08:34:07.147Z,99.99
2018-10-03T08:35:07.213Z,99.99
2018-10-03T08:36:07.267Z,99.99
2018-10-03T08:37:07.329Z,99.99
2018-10-03T08:38:07.389Z,99.99
2018-10-03T08:39:07.452Z,99.99
2018-10-03T08:40:07.511Z,99.99
2018-10-03T08:41:07.572Z,99.99
2018-10-03T08:42:07.633Z,99.99
2018-10-03T08:43:07.697Z,99.99
2018-10-03T08:44:07.754Z,99.99
2018-10-03T08:45:07.821Z,99.99
2018-10-03T08:46:07.877Z,99.99
2018-10-03T08:47:07.941Z,99.99
2018-10-03T08:48:07.998Z,99.99
2018-10-03T08:49:08.060Z,99.99
2018-10-03T08:50:08.121Z,99.99
2018-10-03T08:51:08.184Z,99.96
2018-10-03T08:52:08.243Z,98.91
2018-10-03T08:53:08.305Z,97.66
2018-10-03T08:54:08.366Z,99.43
2018-10-03T08:55:08.428Z,99.58
2018-10-03T08:56:08.488Z,99.96
2018-10-03T08:57:08.549Z,96.61
2018-10-03T08:58:08.708Z,95.41
2018-10-03T08:59:08.673Z,95.60
2018-10-03T09:00:08.734Z,94.74
2018-10-03T09:01:08.796Z,93.59
2018-10-03T09:02:08.857Z,89.28
2018-10-03T09:03:08.919Z,87.65
2018-10-03T09:04:08.981Z,88.23
2018-10-03T09:05:09.041Z,90.14
2018-10-03T09:06:09.103Z,89.76
2018-10-03T09:07:09.165Z,89.28
2018-10-03T09:08:09.230Z,87.65
2018-10-03T09:09:09.287Z,88.03
2018-10-03T09:10:09.351Z,86.98
2018-10-03T09:11:09.412Z,87.27
2018-10-03T09:12:09.473Z,86.41
2018-10-03T09:13:09.538Z,86.02
2018-10-03T09:14:09.595Z,85.74
2018-10-03T09:15:09.657Z,84.78
2018-10-03T09:16:09.719Z,84.97
2018-10-03T09:17:09.780Z,84.53
2018-10-03T09:18:09.840Z,84.49
2018-10-03T09:19:09.921Z,83.82
2018-10-03T09:20:09.965Z,83.34
2018-10-03T09:21:10.032Z,82.67
2018-10-03T09:22:10.088Z,81.33
2018-10-03T09:23:10.154Z,82.00
2018-10-03T09:24:10.223Z,81.43
2018-10-03T09:25:10.275Z,81.52
2018-10-03T09:26:10.338Z,81.90
2018-10-03T09:27:10.396Z,80.66
2018-10-03T09:28:10.463Z,81.18
2018-10-03T09:29:10.519Z,80.03
2018-10-03T09:30:10.582Z,79.36
2018-10-03T09:31:10.644Z,78.49
2018-10-03T09:32:10.708Z,79.16
2018-10-03T09:33:10.766Z,79.07
2018-10-03T09:34:10.828Z,78.78
2018-10-03T09:35:10.890Z,77.25
2018-10-03T09:36:10.951Z,78.49
2018-10-03T09:37:11.013Z,77.86
2018-10-03T09:38:11.075Z,78.53
2018-10-03T09:39:11.138Z,77.86
2018-10-03T09:40:11.197Z,78.25
2018-10-03T09:41:11.260Z,78.82
2018-10-03T09:42:11.324Z,79.21
2018-10-03T09:43:11.391Z,79.39
2018-10-03T09:44:11.473Z,79.88
2018-10-03T09:45:11.508Z,77.76
2018-10-03T09:46:11.569Z,78.09
2018-10-03T09:47:11.632Z,76.84
2018-10-03T09:48:11.693Z,76.65
2018-10-03T09:49:11.755Z,76.04
2018-10-03T09:50:11.818Z,76.14
2018-10-03T09:51:11.899Z,75.79
2018-10-03T09:52:11.941Z,75.40
2018-10-03T09:53:12.004Z,75.85
2018-10-03T09:54:12.067Z,76.42
2018-10-03T09:55:12.130Z,76.75
2018-10-03T09:56:12.192Z,75.70
2018-10-03T09:57:12.253Z,75.12
2018-10-03T09:58:12.314Z,73.77
2018-10-03T09:59:12.379Z,73.20
2018-10-03T10:00:12.474Z,73.10
2018-10-03T10:01:12.503Z,73.68
2018-10-03T10:02:12.563Z,73.20
2018-10-03T10:03:12.628Z,73.20
2018-10-03T10:04:12.688Z,73.58
2018-10-03T10:05:12.754Z,74.06
2018-10-03T10:06:12.813Z,72.63
2018-10-03T10:07:12.876Z,72.24
2018-10-03T10:08:12.946Z,72.88
2018-10-03T10:09:13.004Z,73.55
2018-10-03T10:10:13.116Z,73.10
2018-10-03T10:11:13.157Z,72.14
2018-10-03T10:12:13.187Z,71.47
2018-10-03T10:13:13.250Z,71.28
2018-10-03T10:14:13.313Z,71.53
2018-10-03T10:15:13.376Z,71.82
2018-10-03T10:16:13.437Z,71.86
2018-10-03T10:17:13.503Z,72.91
2018-10-03T10:18:13.563Z,72.05
2018-10-03T10:19:13.625Z,71.95
2018-10-03T10:20:13.687Z,71.57
2018-10-03T10:21:13.750Z,72.14
2018-10-03T10:22:13.811Z,71.95
2018-10-03T10:23:13.875Z,71.37
2018-10-03T10:24:13.940Z,71.09
2018-10-03T10:25:14.000Z,70.03
2018-10-03T10:26:14.061Z,70.07
2018-10-03T10:27:14.124Z,69.49
2018-10-03T10:28:14.188Z,69.78
2018-10-03T10:29:14.249Z,69.30
2018-10-03T10:30:14.312Z,69.20
2018-10-03T10:31:14.377Z,69.40
2018-10-03T10:32:14.536Z,69.36
2018-10-03T10:33:14.500Z,69.87
2018-10-03T10:34:14.562Z,69.84
2018-10-03T10:35:14.625Z,70.03
2018-10-03T10:36:14.687Z,70.32
2018-10-03T10:37:15.310Z,69.84
2018-10-03T10:38:14.814Z,70.13
2018-10-03T10:39:14.876Z,71.47
2018-10-03T10:40:15.008Z,71.19
2018-10-03T10:41:15.072Z,71.19
2018-10-03T10:42:15.064Z,70.51
2018-10-03T10:43:15.131Z,70.99
2018-10-03T10:44:15.187Z,70.80
2018-10-03T10:45:15.252Z,70.32
2018-10-03T10:46:15.312Z,69.93
2018-10-03T10:47:15.376Z,69.65
2018-10-03T10:48:15.441Z,69.49
2018-10-03T10:49:15.500Z,69.11
2018-10-03T10:50:15.627Z,68.24
2018-10-03T10:51:15.877Z,68.24
2018-10-03T10:52:15.688Z,67.99
2018-10-03T10:53:15.796Z,67.80
2018-10-03T10:54:15.816Z,67.99
2018-10-03T10:55:15.881Z,67.13
2018-10-03T10:56:15.938Z,67.51
2018-10-03T10:57:16.001Z,66.80
2018-10-03T10:58:16.068Z,67.03
2018-10-03T10:59:16.127Z,66.90
2018-10-03T11:00:16.190Z,67.57
2018-10-03T11:01:16.253Z,67.76
2018-10-03T11:02:16.316Z,67.47
2018-10-03T11:03:16.379Z,67.67
2018-10-03T11:04:16.443Z,67.83
2018-10-03T11:05:16.505Z,67.47
2018-10-03T11:06:16.651Z,67.47
2018-10-03T11:07:16.632Z,66.96
2018-10-03T11:08:16.695Z,67.19
2018-10-03T11:09:16.759Z,67.38
2018-10-03T11:10:16.819Z,67.38
2018-10-03T11:11:16.881Z,66.52
2018-10-03T11:12:16.945Z,64.85
2018-10-03T11:13:17.008Z,64.50
2018-10-03T11:14:17.070Z,65.36
2018-10-03T11:15:17.135Z,65.97
2018-10-03T11:16:17.196Z,64.63
2018-10-03T11:17:17.260Z,65.46
2018-10-03T11:18:17.329Z,65.65
2018-10-03T11:19:17.387Z,65.23
2018-10-03T11:20:17.448Z,63.22
2018-10-03T11:21:17.514Z,63.96
2018-10-03T11:22:17.574Z,64.66
2018-10-03T11:23:17.638Z,63.79
2018-10-03T11:24:17.885Z,64.28
2018-10-03T11:25:17.764Z,64.53
2018-10-03T11:26:17.827Z,62.96
2018-10-03T11:27:17.891Z,60.30
2018-10-03T11:28:17.952Z,59.17
2018-10-03T11:29:18.016Z,58.05
2018-10-03T11:30:18.080Z,57.60
2018-10-03T11:31:18.144Z,55.87
2018-10-03T11:32:18.266Z,55.82
2018-10-03T11:33:18.271Z,53.92
2018-10-03T11:34:18.385Z,53.31
2018-10-03T11:35:18.399Z,53.77
2018-10-03T11:36:18.463Z,53.77
2018-10-03T11:37:18.527Z,53.31
2018-10-03T11:38:18.606Z,52.83
2018-10-03T11:39:18.657Z,52.91
2018-10-03T11:40:18.721Z,53.29
2018-10-03T11:41:19.037Z,53.55
2018-10-03T11:42:18.854Z,56.29
2018-10-03T11:43:18.916Z,58.06
2018-10-03T11:44:18.981Z,58.73
2018-10-03T11:45:19.046Z,60.40
2018-10-03T11:46:19.112Z,61.72
2018-10-03T11:47:19.177Z,60.24
2018-10-03T11:48:19.242Z,58.99
2018-10-03T11:49:19.306Z,59.34
2018-10-03T11:50:19.371Z,59.83
2018-10-03T11:51:19.437Z,59.09
2018-10-03T11:52:19.498Z,57.83
2018-10-03T11:53:19.564Z,56.05
2018-10-03T11:54:19.629Z,53.65
2018-10-03T11:55:19.694Z,52.59
2018-10-03T11:56:19.759Z,53.07
2018-10-03T11:57:19.824Z,53.72
2018-10-03T11:58:19.893Z,53.07
2018-10-03T11:59:19.985Z,52.61
2018-10-03T12:00:20.028Z,51.58
2018-10-03T12:01:20.084Z,51.48
2018-10-03T12:02:20.151Z,51.12
2018-10-03T12:03:20.332Z,50.93
2018-10-03T12:04:20.277Z,50.93
2018-10-03T12:05:20.343Z,50.71
2018-10-03T12:06:20.428Z,52.04
2018-10-03T12:07:20.474Z,52.59
2018-10-03T12:08:20.538Z,52.71
2018-10-03T12:09:20.627Z,52.49
2018-10-03T12:10:20.697Z,53.36
2018-10-03T12:11:20.737Z,53.91
2018-10-03T12:12:20.802Z,54.39
2018-10-03T12:13:20.871Z,55.90
2018-10-03T12:14:20.933Z,55.88
2018-10-03T12:15:20.999Z,58.03
2018-10-03T12:16:21.067Z,59.66
2018-10-03T12:17:21.130Z,59.76
2018-10-03T12:18:21.196Z,60.50
2018-10-03T12:19:21.260Z,59.89
2018-10-03T12:20:21.324Z,58.57
2018-10-03T12:21:21.390Z,58.89
2018-10-03T12:22:21.455Z,59.54
2018-10-03T12:23:21.519Z,60.14
2018-10-03T12:24:21.584Z,59.47
2018-10-03T12:25:21.738Z,58.51
2018-10-03T12:26:21.720Z,58.96
2018-10-03T12:27:21.777Z,58.96
2018-10-03T12:28:21.844Z,59.09
2018-10-03T12:29:21.904Z,58.61
2018-10-03T12:30:21.968Z,58.76
2018-10-03T12:31:22.034Z,56.29
2018-10-03T12:32:22.094Z,55.62
2018-10-03T12:33:22.213Z,55.71
2018-10-03T12:34:22.224Z,56.36
2018-10-03T12:35:22.288Z,56.20
2018-10-03T12:36:22.352Z,55.55
2018-10-03T12:37:22.414Z,54.32
2018-10-03T12:38:22.479Z,53.13
2018-10-03T12:39:22.543Z,52.59
2018-10-03T12:40:22.606Z,52.04
2018-10-03T12:41:22.670Z,51.48
2018-10-03T12:42:22.740Z,50.45
2018-10-03T12:43:22.802Z,49.96
2018-10-03T12:44:22.862Z,51.07
2018-10-03T12:45:22.928Z,51.56
2018-10-03T12:46:22.993Z,52.04
2018-10-03T12:47:23.059Z,52.13
2018-10-03T12:48:23.125Z,52.71
2018-10-03T12:49:23.188Z,51.97
2018-10-03T12:50:23.931Z,50.23
2018-10-03T12:51:23.321Z,51.00
2018-10-03T12:52:23.387Z,50.62
2018-10-03T12:53:23.449Z,50.62
2018-10-03T12:54:23.515Z,50.71